sensor_id;sensor_type;location;lat;lon;timestamp;temperature;humidity
9414;DHT22;4746;35.664;139.738;2023-12-07T00:00:23;12.90;99.90
9414;DHT22;4746;35.664;139.738;2023-12-07T00:02:51;13.10;99.90
9414;DHT22;4746;35.664;139.738;2023-12-07T00:05:18;13.20;99.90
9414;DHT22;4746;35.664;139.738;2023-12-07T00:07:46;13.30;99.90
9414;DHT22;4746;35.664;139.738;2023-12-07T00:10:13;13.40;99.90
9414;DHT22;4746;35.664;139.738;2023-12-07T00:12:41;13.50;99.90
9414;DHT22;4746;35.664;139.738;2023-12-07T00:15:08;13.60;99.90
9414;DHT22;4746;35.664;139.738;2023-12-07T00:17:36;13.70;99.90
9414;DHT22;4746;35.664;139.738;2023-12-07T00:20:04;13.70;99.90
9414;DHT22;4746;35.664;139.738;2023-12-07T00:22:32;13.70;99.90
9414;DHT22;4746;35.664;139.738;2023-12-07T00:24:59;13.70;99.90
9414;DHT22;4746;35.664;139.738;2023-12-07T00:27:29;13.70;99.90
9414;DHT22;4746;35.664;139.738;2023-12-07T00:29:57;13.70;99.90
9414;DHT22;4746;35.664;139.738;2023-12-07T00:32:24;13.70;99.90
9414;DHT22;4746;35.664;139.738;2023-12-07T00:34:53;13.70;99.90
9414;DHT22;4746;35.664;139.738;2023-12-07T00:37:21;13.70;99.90
9414;DHT22;4746;35.664;139.738;2023-12-07T00:39:48;13.80;99.90
9414;DHT22;4746;35.664;139.738;2023-12-07T00:42:16;13.90;99.90
9414;DHT22;4746;35.664;139.738;2023-12-07T00:44:44;14.00;99.90
9414;DHT22;4746;35.664;139.738;2023-12-07T00:47:11;14.00;99.90
9414;DHT22;4746;35.664;139.738;2023-12-07T00:49:40;14.10;99.90
9414;DHT22;4746;35.664;139.738;2023-12-07T00:52:07;14.10;99.90
9414;DHT22;4746;35.664;139.738;2023-12-07T00:54:35;14.10;99.90
9414;DHT22;4746;35.664;139.738;2023-12-07T00:57:03;14.10;99.90
9414;DHT22;4746;35.664;139.738;2023-12-07T00:59:30;14.20;99.90
9414;DHT22;4746;35.664;139.738;2023-12-07T01:02:04;14.30;99.90
9414;DHT22;4746;35.664;139.738;2023-12-07T01:04:34;14.40;99.90
9414;DHT22;4746;35.664;139.738;2023-12-07T01:07:01;14.50;99.90
9414;DHT22;4746;35.664;139.738;2023-12-07T01:09:29;14.50;99.90
9414;DHT22;4746;35.664;139.738;2023-12-07T01:11:57;14.70;99.90
9414;DHT22;4746;35.664;139.738;2023-12-07T01:14:27;14.70;99.90
9414;DHT22;4746;35.664;139.738;2023-12-07T01:16:56;14.80;99.90
9414;DHT22;4746;35.664;139.738;2023-12-07T01:19:27;14.90;99.90
9414;DHT22;4746;35.664;139.738;2023-12-07T01:21:55;14.90;99.90
9414;DHT22;4746;35.664;139.738;2023-12-07T01:24:23;14.90;99.90
9414;DHT22;4746;35.664;139.738;2023-12-07T01:26:52;14.90;99.90
9414;DHT22;4746;35.664;139.738;2023-12-07T01:29:20;15.00;99.90
9414;DHT22;4746;35.664;139.738;2023-12-07T01:31:49;15.10;99.90
9414;DHT22;4746;35.664;139.738;2023-12-07T01:34:20;15.20;99.90
9414;DHT22;4746;35.664;139.738;2023-12-07T01:36:49;15.30;99.90
9414;DHT22;4746;35.664;139.738;2023-12-07T01:39:19;15.40;99.90
9414;DHT22;4746;35.664;139.738;2023-12-07T01:41:49;15.50;99.90
9414;DHT22;4746;35.664;139.738;2023-12-07T01:44:18;15.50;99.90
9414;DHT22;4746;35.664;139.738;2023-12-07T01:46:46;15.70;99.90
9414;DHT22;4746;35.664;139.738;2023-12-07T01:49:14;15.80;99.90
9414;DHT22;4746;35.664;139.738;2023-12-07T01:51:42;16.00;99.90
9414;DHT22;4746;35.664;139.738;2023-12-07T01:54:10;16.20;99.90
9414;DHT22;4746;35.664;139.738;2023-12-07T01:56:42;16.40;99.90
9414;DHT22;4746;35.664;139.738;2023-12-07T01:59:11;16.50;99.90
9414;DHT22;4746;35.664;139.738;2023-12-07T02:01:45;16.70;99.90
9414;DHT22;4746;35.664;139.738;2023-12-07T02:04:14;16.80;99.90
9414;DHT22;4746;35.664;139.738;2023-12-07T02:06:42;17.00;99.90
9414;DHT22;4746;35.664;139.738;2023-12-07T02:09:11;17.20;99.90
9414;DHT22;4746;35.664;139.738;2023-12-07T02:11:39;17.40;99.90
9414;DHT22;4746;35.664;139.738;2023-12-07T02:14:07;17.50;99.90
9414;DHT22;4746;35.664;139.738;2023-12-07T02:16:48;17.70;99.90
9414;DHT22;4746;35.664;139.738;2023-12-07T02:22:21;17.90;99.90
9414;DHT22;4746;35.664;139.738;2023-12-07T02:25:09;18.00;99.90
9414;DHT22;4746;35.664;139.738;2023-12-07T02:27:45;18.20;99.90
9414;DHT22;4746;35.664;139.738;2023-12-07T02:30:14;18.40;99.90
9414;DHT22;4746;35.664;139.738;2023-12-07T02:32:45;18.60;99.90
9414;DHT22;4746;35.664;139.738;2023-12-07T02:35:15;18.60;99.90
9414;DHT22;4746;35.664;139.738;2023-12-07T02:37:50;18.70;99.90
9414;DHT22;4746;35.664;139.738;2023-12-07T02:40:23;18.80;99.90
9414;DHT22;4746;35.664;139.738;2023-12-07T02:42:56;18.90;99.90
9414;DHT22;4746;35.664;139.738;2023-12-07T02:45:34;19.00;99.80
9414;DHT22;4746;35.664;139.738;2023-12-07T02:48:02;19.10;98.80
9414;DHT22;4746;35.664;139.738;2023-12-07T02:50:32;19.00;95.80
9414;DHT22;4746;35.664;139.738;2023-12-07T02:53:00;19.10;96.10
9414;DHT22;4746;35.664;139.738;2023-12-07T02:55:28;19.20;95.80
9414;DHT22;4746;35.664;139.738;2023-12-07T02:57:57;19.10;95.40
9414;DHT22;4746;35.664;139.738;2023-12-07T03:00:26;19.20;94.50
9414;DHT22;4746;35.664;139.738;2023-12-07T03:02:56;19.30;93.80
9414;DHT22;4746;35.664;139.738;2023-12-07T03:05:25;19.40;93.00
9414;DHT22;4746;35.664;139.738;2023-12-07T03:07:54;19.10;92.00
9414;DHT22;4746;35.664;139.738;2023-12-07T03:10:24;19.20;92.00
9414;DHT22;4746;35.664;139.738;2023-12-07T03:12:52;19.20;92.80
9414;DHT22;4746;35.664;139.738;2023-12-07T03:15:20;19.40;92.00
9414;DHT22;4746;35.664;139.738;2023-12-07T03:17:49;19.40;91.60
9414;DHT22;4746;35.664;139.738;2023-12-07T03:20:18;19.50;92.00
9414;DHT22;4746;35.664;139.738;2023-12-07T03:22:48;19.70;90.10
9414;DHT22;4746;35.664;139.738;2023-12-07T03:25:16;19.80;90.00
9414;DHT22;4746;35.664;139.738;2023-12-07T03:27:45;20.00;88.50
9414;DHT22;4746;35.664;139.738;2023-12-07T03:30:19;19.80;83.60
9414;DHT22;4746;35.664;139.738;2023-12-07T03:32:48;19.70;82.90
9414;DHT22;4746;35.664;139.738;2023-12-07T03:35:16;19.60;81.60
9414;DHT22;4746;35.664;139.738;2023-12-07T03:37:45;19.60;80.60
9414;DHT22;4746;35.664;139.738;2023-12-07T03:40:13;19.50;79.90
9414;DHT22;4746;35.664;139.738;2023-12-07T03:42:43;19.50;79.90
9414;DHT22;4746;35.664;139.738;2023-12-07T03:45:11;19.70;78.50
9414;DHT22;4746;35.664;139.738;2023-12-07T03:47:41;19.90;77.00
9414;DHT22;4746;35.664;139.738;2023-12-07T03:50:09;19.70;74.70
9414;DHT22;4746;35.664;139.738;2023-12-07T03:52:38;20.00;73.60
9414;DHT22;4746;35.664;139.738;2023-12-07T03:55:07;20.20;71.10
9414;DHT22;4746;35.664;139.738;2023-12-07T03:57:38;20.30;69.60
9414;DHT22;4746;35.664;139.738;2023-12-07T04:00:11;20.40;65.60
9414;DHT22;4746;35.664;139.738;2023-12-07T04:02:40;20.60;63.80
9414;DHT22;4746;35.664;139.738;2023-12-07T04:05:08;20.50;61.10
9414;DHT22;4746;35.664;139.738;2023-12-07T04:07:36;21.10;61.10
9414;DHT22;4746;35.664;139.738;2023-12-07T04:10:04;21.10;55.60
9414;DHT22;4746;35.664;139.738;2023-12-07T04:12:32;21.20;54.90
9414;DHT22;4746;35.664;139.738;2023-12-07T04:15:00;20.90;53.90
9414;DHT22;4746;35.664;139.738;2023-12-07T04:17:28;21.10;53.80
9414;DHT22;4746;35.664;139.738;2023-12-07T04:19:55;21.20;52.80
9414;DHT22;4746;35.664;139.738;2023-12-07T04:22:23;21.30;53.00
9414;DHT22;4746;35.664;139.738;2023-12-07T04:24:51;21.50;51.10
9414;DHT22;4746;35.664;139.738;2023-12-07T04:27:19;21.60;50.40
9414;DHT22;4746;35.664;139.738;2023-12-07T04:29:46;21.90;50.10
9414;DHT22;4746;35.664;139.738;2023-12-07T04:32:14;21.80;47.10
9414;DHT22;4746;35.664;139.738;2023-12-07T04:34:41;21.90;46.70
9414;DHT22;4746;35.664;139.738;2023-12-07T04:37:10;21.70;46.70
9414;DHT22;4746;35.664;139.738;2023-12-07T04:39:38;22.00;46.10
9414;DHT22;4746;35.664;139.738;2023-12-07T04:42:05;21.90;44.80
9414;DHT22;4746;35.664;139.738;2023-12-07T04:44:33;21.50;44.60
9414;DHT22;4746;35.664;139.738;2023-12-07T04:47:02;21.10;44.00
9414;DHT22;4746;35.664;139.738;2023-12-07T04:49:29;21.20;44.60
9414;DHT22;4746;35.664;139.738;2023-12-07T04:51:57;21.00;44.10
9414;DHT22;4746;35.664;139.738;2023-12-07T04:54:24;21.40;44.60
9414;DHT22;4746;35.664;139.738;2023-12-07T04:56:53;21.00;43.20
9414;DHT22;4746;35.664;139.738;2023-12-07T04:59:22;21.10;44.10
9414;DHT22;4746;35.664;139.738;2023-12-07T05:01:50;21.00;43.20
9414;DHT22;4746;35.664;139.738;2023-12-07T05:04:17;21.10;43.40
9414;DHT22;4746;35.664;139.738;2023-12-07T05:06:44;21.20;43.00
9414;DHT22;4746;35.664;139.738;2023-12-07T05:09:12;21.40;42.50
9414;DHT22;4746;35.664;139.738;2023-12-07T05:11:40;21.70;42.00
9414;DHT22;4746;35.664;139.738;2023-12-07T05:14:07;21.80;42.20
9414;DHT22;4746;35.664;139.738;2023-12-07T05:16:35;21.90;40.80
9414;DHT22;4746;35.664;139.738;2023-12-07T05:19:02;21.80;41.70
9414;DHT22;4746;35.664;139.738;2023-12-07T05:21:30;21.90;40.30
9414;DHT22;4746;35.664;139.738;2023-12-07T05:23:57;21.60;39.20
9414;DHT22;4746;35.664;139.738;2023-12-07T05:26:25;22.10;40.20
9414;DHT22;4746;35.664;139.738;2023-12-07T05:28:52;21.90;40.00
9414;DHT22;4746;35.664;139.738;2023-12-07T05:31:22;21.50;40.30
9414;DHT22;4746;35.664;139.738;2023-12-07T05:33:50;21.90;41.00
9414;DHT22;4746;35.664;139.738;2023-12-07T05:36:17;21.90;41.90
9414;DHT22;4746;35.664;139.738;2023-12-07T05:38:45;21.60;40.60
9414;DHT22;4746;35.664;139.738;2023-12-07T05:41:12;21.30;40.40
9414;DHT22;4746;35.664;139.738;2023-12-07T05:43:42;21.30;41.20
9414;DHT22;4746;35.664;139.738;2023-12-07T05:46:09;21.90;41.80
9414;DHT22;4746;35.664;139.738;2023-12-07T05:48:37;22.10;41.60
9414;DHT22;4746;35.664;139.738;2023-12-07T05:51:06;22.00;39.70
9414;DHT22;4746;35.664;139.738;2023-12-07T05:53:43;22.00;40.20
9414;DHT22;4746;35.664;139.738;2023-12-07T05:56:11;22.10;39.80
9414;DHT22;4746;35.664;139.738;2023-12-07T05:58:39;22.30;40.60
9414;DHT22;4746;35.664;139.738;2023-12-07T06:01:06;22.40;41.20
9414;DHT22;4746;35.664;139.738;2023-12-07T06:03:36;22.50;39.80
9414;DHT22;4746;35.664;139.738;2023-12-07T06:06:04;22.80;40.20
9414;DHT22;4746;35.664;139.738;2023-12-07T06:08:32;23.20;39.80
9414;DHT22;4746;35.664;139.738;2023-12-07T06:11:00;23.00;37.40
9414;DHT22;4746;35.664;139.738;2023-12-07T06:13:28;22.40;37.50
9414;DHT22;4746;35.664;139.738;2023-12-07T06:15:55;22.30;37.70
9414;DHT22;4746;35.664;139.738;2023-12-07T06:18:23;22.50;38.10
9414;DHT22;4746;35.664;139.738;2023-12-07T06:20:51;22.50;37.20
9414;DHT22;4746;35.664;139.738;2023-12-07T06:23:18;22.10;37.00
9414;DHT22;4746;35.664;139.738;2023-12-07T06:25:46;22.30;37.00
9414;DHT22;4746;35.664;139.738;2023-12-07T06:28:13;22.30;37.20
9414;DHT22;4746;35.664;139.738;2023-12-07T06:30:41;22.30;37.10
9414;DHT22;4746;35.664;139.738;2023-12-07T06:33:09;22.40;36.90
9414;DHT22;4746;35.664;139.738;2023-12-07T06:35:37;21.80;38.40
9414;DHT22;4746;35.664;139.738;2023-12-07T06:38:05;21.60;41.00
9414;DHT22;4746;35.664;139.738;2023-12-07T06:40:32;21.80;43.50
9414;DHT22;4746;35.664;139.738;2023-12-07T06:43:01;22.30;44.40
9414;DHT22;4746;35.664;139.738;2023-12-07T06:45:28;22.70;46.20
9414;DHT22;4746;35.664;139.738;2023-12-07T06:47:56;22.90;43.90
9414;DHT22;4746;35.664;139.738;2023-12-07T06:50:23;23.10;44.10
9414;DHT22;4746;35.664;139.738;2023-12-07T06:52:51;23.20;41.70
9414;DHT22;4746;35.664;139.738;2023-12-07T06:55:19;23.40;40.40
9414;DHT22;4746;35.664;139.738;2023-12-07T06:57:46;23.40;39.90
9414;DHT22;4746;35.664;139.738;2023-12-07T07:00:14;23.30;40.00
9414;DHT22;4746;35.664;139.738;2023-12-07T07:02:41;23.40;40.40
9414;DHT22;4746;35.664;139.738;2023-12-07T07:05:09;23.70;40.70
9414;DHT22;4746;35.664;139.738;2023-12-07T07:07:38;23.90;40.70
9414;DHT22;4746;35.664;139.738;2023-12-07T07:10:06;24.00;40.60
9414;DHT22;4746;35.664;139.738;2023-12-07T07:12:36;24.20;40.30
9414;DHT22;4746;35.664;139.738;2023-12-07T07:15:03;24.30;39.20
9414;DHT22;4746;35.664;139.738;2023-12-07T07:17:33;24.20;39.00
9414;DHT22;4746;35.664;139.738;2023-12-07T07:20:03;23.80;37.90
9414;DHT22;4746;35.664;139.738;2023-12-07T07:22:31;23.40;37.90
9414;DHT22;4746;35.664;139.738;2023-12-07T07:25:00;23.10;37.70
9414;DHT22;4746;35.664;139.738;2023-12-07T07:27:29;22.80;37.00
9414;DHT22;4746;35.664;139.738;2023-12-07T07:29:56;22.40;38.00
9414;DHT22;4746;35.664;139.738;2023-12-07T07:32:25;22.10;37.50
9414;DHT22;4746;35.664;139.738;2023-12-07T07:34:52;21.70;37.70
9414;DHT22;4746;35.664;139.738;2023-12-07T07:37:25;21.30;38.40
9414;DHT22;4746;35.664;139.738;2023-12-07T07:39:53;21.00;38.70
9414;DHT22;4746;35.664;139.738;2023-12-07T07:42:20;20.90;38.70
9414;DHT22;4746;35.664;139.738;2023-12-07T07:44:48;20.70;38.40
9414;DHT22;4746;35.664;139.738;2023-12-07T07:47:15;20.50;38.90
9414;DHT22;4746;35.664;139.738;2023-12-07T07:49:43;20.30;38.30
9414;DHT22;4746;35.664;139.738;2023-12-07T07:52:10;20.10;38.50
9414;DHT22;4746;35.664;139.738;2023-12-07T07:54:38;19.90;39.10
9414;DHT22;4746;35.664;139.738;2023-12-07T07:57:05;19.80;39.90
9414;DHT22;4746;35.664;139.738;2023-12-07T07:59:33;19.60;40.90
9414;DHT22;4746;35.664;139.738;2023-12-07T08:02:01;19.50;41.40
9414;DHT22;4746;35.664;139.738;2023-12-07T08:04:28;19.20;37.80
9414;DHT22;4746;35.664;139.738;2023-12-07T08:06:56;19.00;31.60
9414;DHT22;4746;35.664;139.738;2023-12-07T08:09:28;18.90;30.30
9414;DHT22;4746;35.664;139.738;2023-12-07T08:11:56;18.60;29.60
9414;DHT22;4746;35.664;139.738;2023-12-07T08:14:23;18.50;27.80
9414;DHT22;4746;35.664;139.738;2023-12-07T08:16:51;18.30;26.50
9414;DHT22;4746;35.664;139.738;2023-12-07T08:19:18;18.30;26.70
9414;DHT22;4746;35.664;139.738;2023-12-07T08:21:46;18.10;25.60
9414;DHT22;4746;35.664;139.738;2023-12-07T08:24:13;18.00;25.90
9414;DHT22;4746;35.664;139.738;2023-12-07T08:26:41;17.80;26.30
9414;DHT22;4746;35.664;139.738;2023-12-07T08:29:08;17.60;26.60
9414;DHT22;4746;35.664;139.738;2023-12-07T08:31:36;17.50;27.70
9414;DHT22;4746;35.664;139.738;2023-12-07T08:34:03;17.30;28.70
9414;DHT22;4746;35.664;139.738;2023-12-07T08:36:31;17.20;29.40
9414;DHT22;4746;35.664;139.738;2023-12-07T08:38:59;17.10;30.00
9414;DHT22;4746;35.664;139.738;2023-12-07T08:41:26;17.00;30.60
9414;DHT22;4746;35.664;139.738;2023-12-07T08:43:54;16.90;31.40
9414;DHT22;4746;35.664;139.738;2023-12-07T08:46:21;16.80;31.90
9414;DHT22;4746;35.664;139.738;2023-12-07T08:48:49;16.70;32.20
9414;DHT22;4746;35.664;139.738;2023-12-07T08:51:16;16.70;32.60
9414;DHT22;4746;35.664;139.738;2023-12-07T08:53:44;16.60;33.30
9414;DHT22;4746;35.664;139.738;2023-12-07T08:56:13;16.50;33.50
9414;DHT22;4746;35.664;139.738;2023-12-07T08:58:40;16.40;34.30
9414;DHT22;4746;35.664;139.738;2023-12-07T09:01:08;16.20;34.90
9414;DHT22;4746;35.664;139.738;2023-12-07T09:03:35;16.20;35.40
9414;DHT22;4746;35.664;139.738;2023-12-07T09:06:04;16.10;35.80
9414;DHT22;4746;35.664;139.738;2023-12-07T09:08:33;16.00;36.30
9414;DHT22;4746;35.664;139.738;2023-12-07T09:11:00;16.00;36.30
9414;DHT22;4746;35.664;139.738;2023-12-07T09:13:28;15.90;36.90
9414;DHT22;4746;35.664;139.738;2023-12-07T09:15:57;15.80;36.70
9414;DHT22;4746;35.664;139.738;2023-12-07T09:18:25;15.80;37.50
9414;DHT22;4746;35.664;139.738;2023-12-07T09:20:52;15.70;37.80
9414;DHT22;4746;35.664;139.738;2023-12-07T09:23:20;15.60;36.40
9414;DHT22;4746;35.664;139.738;2023-12-07T09:25:49;15.50;36.40
9414;DHT22;4746;35.664;139.738;2023-12-07T09:28:17;15.40;36.70
9414;DHT22;4746;35.664;139.738;2023-12-07T09:30:45;15.30;36.20
9414;DHT22;4746;35.664;139.738;2023-12-07T09:33:12;15.20;36.50
9414;DHT22;4746;35.664;139.738;2023-12-07T09:35:49;15.10;35.30
9414;DHT22;4746;35.664;139.738;2023-12-07T09:38:17;15.00;35.20
9414;DHT22;4746;35.664;139.738;2023-12-07T09:40:47;14.90;35.20
9414;DHT22;4746;35.664;139.738;2023-12-07T09:43:19;14.90;35.20
9414;DHT22;4746;35.664;139.738;2023-12-07T09:45:48;14.80;35.00
9414;DHT22;4746;35.664;139.738;2023-12-07T09:48:21;14.70;34.90
9414;DHT22;4746;35.664;139.738;2023-12-07T09:50:55;14.70;35.00
9414;DHT22;4746;35.664;139.738;2023-12-07T09:53:23;14.60;34.50
9414;DHT22;4746;35.664;139.738;2023-12-07T09:55:54;14.50;34.50
9414;DHT22;4746;35.664;139.738;2023-12-07T09:58:47;14.50;34.80
9414;DHT22;4746;35.664;139.738;2023-12-07T10:01:15;14.40;34.20
9414;DHT22;4746;35.664;139.738;2023-12-07T10:03:44;14.40;34.20
9414;DHT22;4746;35.664;139.738;2023-12-07T10:06:13;14.30;33.90
9414;DHT22;4746;35.664;139.738;2023-12-07T10:08:40;14.30;33.90
9414;DHT22;4746;35.664;139.738;2023-12-07T10:11:11;14.20;33.70
9414;DHT22;4746;35.664;139.738;2023-12-07T10:13:41;14.10;33.30
9414;DHT22;4746;35.664;139.738;2023-12-07T10:16:13;14.10;33.30
9414;DHT22;4746;35.664;139.738;2023-12-07T10:18:42;14.10;33.40
9414;DHT22;4746;35.664;139.738;2023-12-07T10:21:10;14.10;33.20
9414;DHT22;4746;35.664;139.738;2023-12-07T10:23:39;14.10;33.00
9414;DHT22;4746;35.664;139.738;2023-12-07T10:26:10;14.00;32.80
9414;DHT22;4746;35.664;139.738;2023-12-07T10:28:39;14.00;32.90
9414;DHT22;4746;35.664;139.738;2023-12-07T10:31:10;14.00;32.60
9414;DHT22;4746;35.664;139.738;2023-12-07T10:33:37;13.90;32.10
9414;DHT22;4746;35.664;139.738;2023-12-07T10:36:05;13.90;31.90
9414;DHT22;4746;35.664;139.738;2023-12-07T10:38:33;13.90;31.90
9414;DHT22;4746;35.664;139.738;2023-12-07T10:41:08;13.90;31.70
9414;DHT22;4746;35.664;139.738;2023-12-07T10:43:43;13.80;31.50
9414;DHT22;4746;35.664;139.738;2023-12-07T10:46:15;13.80;31.60
9414;DHT22;4746;35.664;139.738;2023-12-07T10:48:44;13.80;31.20
9414;DHT22;4746;35.664;139.738;2023-12-07T10:51:28;13.80;30.90
9414;DHT22;4746;35.664;139.738;2023-12-07T10:53:57;13.80;30.70
9414;DHT22;4746;35.664;139.738;2023-12-07T10:56:40;13.80;30.20
9414;DHT22;4746;35.664;139.738;2023-12-07T10:59:12;13.80;30.70
9414;DHT22;4746;35.664;139.738;2023-12-07T11:01:41;13.80;30.50
9414;DHT22;4746;35.664;139.738;2023-12-07T11:04:14;13.70;29.90
9414;DHT22;4746;35.664;139.738;2023-12-07T11:06:44;13.70;29.70
9414;DHT22;4746;35.664;139.738;2023-12-07T11:09:30;13.70;29.70
9414;DHT22;4746;35.664;139.738;2023-12-07T11:12:09;13.60;29.60
9414;DHT22;4746;35.664;139.738;2023-12-07T11:14:45;13.60;29.50
9414;DHT22;4746;35.664;139.738;2023-12-07T11:17:15;13.60;30.00
9414;DHT22;4746;35.664;139.738;2023-12-07T11:19:45;13.60;29.90
9414;DHT22;4746;35.664;139.738;2023-12-07T11:22:14;13.60;29.50
9414;DHT22;4746;35.664;139.738;2023-12-07T11:24:57;13.50;29.50
9414;DHT22;4746;35.664;139.738;2023-12-07T11:27:30;13.50;29.40
9414;DHT22;4746;35.664;139.738;2023-12-07T11:30:03;13.50;29.00
9414;DHT22;4746;35.664;139.738;2023-12-07T11:32:31;13.50;29.10
9414;DHT22;4746;35.664;139.738;2023-12-07T11:35:03;13.40;28.70
9414;DHT22;4746;35.664;139.738;2023-12-07T11:38:00;13.40;28.50
9414;DHT22;4746;35.664;139.738;2023-12-07T11:40:30;13.40;28.30
9414;DHT22;4746;35.664;139.738;2023-12-07T11:43:02;13.30;28.60
9414;DHT22;4746;35.664;139.738;2023-12-07T11:45:42;13.30;28.60
9414;DHT22;4746;35.664;139.738;2023-12-07T11:48:19;13.30;28.40
9414;DHT22;4746;35.664;139.738;2023-12-07T11:53:37;13.20;28.30
9414;DHT22;4746;35.664;139.738;2023-12-07T11:56:10;13.10;28.20
9414;DHT22;4746;35.664;139.738;2023-12-07T11:58:39;13.20;28.30
9414;DHT22;4746;35.664;139.738;2023-12-07T12:01:07;13.10;28.10
9414;DHT22;4746;35.664;139.738;2023-12-07T12:03:35;13.10;27.70
9414;DHT22;4746;35.664;139.738;2023-12-07T12:06:06;13.00;28.00
9414;DHT22;4746;35.664;139.738;2023-12-07T12:08:36;13.00;28.10
9414;DHT22;4746;35.664;139.738;2023-12-07T12:11:04;13.00;27.90
9414;DHT22;4746;35.664;139.738;2023-12-07T12:13:36;13.00;27.90
9414;DHT22;4746;35.664;139.738;2023-12-07T12:16:04;13.00;27.50
9414;DHT22;4746;35.664;139.738;2023-12-07T12:18:33;13.00;27.10
9414;DHT22;4746;35.664;139.738;2023-12-07T12:21:01;13.00;27.50
9414;DHT22;4746;35.664;139.738;2023-12-07T12:23:29;12.90;27.60
9414;DHT22;4746;35.664;139.738;2023-12-07T12:25:57;13.00;27.60
9414;DHT22;4746;35.664;139.738;2023-12-07T12:28:25;13.00;30.00
9414;DHT22;4746;35.664;139.738;2023-12-07T12:30:54;13.10;30.10
9414;DHT22;4746;35.664;139.738;2023-12-07T12:33:23;13.20;29.70
9414;DHT22;4746;35.664;139.738;2023-12-07T12:36:04;13.20;29.00
9414;DHT22;4746;35.664;139.738;2023-12-07T12:38:37;13.10;27.20
9414;DHT22;4746;35.664;139.738;2023-12-07T12:41:05;13.00;26.70
9414;DHT22;4746;35.664;139.738;2023-12-07T12:43:33;13.00;26.70
9414;DHT22;4746;35.664;139.738;2023-12-07T12:46:03;12.90;27.10
9414;DHT22;4746;35.664;139.738;2023-12-07T12:48:31;12.90;27.20
9414;DHT22;4746;35.664;139.738;2023-12-07T12:51:13;12.90;26.80
9414;DHT22;4746;35.664;139.738;2023-12-07T12:53:47;12.90;26.50
9414;DHT22;4746;35.664;139.738;2023-12-07T12:56:15;12.80;27.00
9414;DHT22;4746;35.664;139.738;2023-12-07T12:58:42;12.90;26.90
9414;DHT22;4746;35.664;139.738;2023-12-07T13:01:10;12.80;26.60
9414;DHT22;4746;35.664;139.738;2023-12-07T13:03:38;12.80;26.70
9414;DHT22;4746;35.664;139.738;2023-12-07T13:06:06;12.80;26.70
9414;DHT22;4746;35.664;139.738;2023-12-07T13:08:34;12.80;26.40
9414;DHT22;4746;35.664;139.738;2023-12-07T13:11:04;12.80;26.60
9414;DHT22;4746;35.664;139.738;2023-12-07T13:13:32;12.70;26.30
9414;DHT22;4746;35.664;139.738;2023-12-07T13:16:00;12.70;26.50
9414;DHT22;4746;35.664;139.738;2023-12-07T13:18:28;12.70;26.40
9414;DHT22;4746;35.664;139.738;2023-12-07T13:20:56;12.70;26.40
9414;DHT22;4746;35.664;139.738;2023-12-07T13:23:26;12.70;26.40
9414;DHT22;4746;35.664;139.738;2023-12-07T13:25:54;12.60;26.20
9414;DHT22;4746;35.664;139.738;2023-12-07T13:28:21;12.60;26.20
9414;DHT22;4746;35.664;139.738;2023-12-07T13:30:50;12.60;26.20
9414;DHT22;4746;35.664;139.738;2023-12-07T13:33:20;12.50;26.10
9414;DHT22;4746;35.664;139.738;2023-12-07T13:35:49;12.50;26.20
9414;DHT22;4746;35.664;139.738;2023-12-07T13:38:18;12.50;26.30
9414;DHT22;4746;35.664;139.738;2023-12-07T13:40:47;12.40;26.20
9414;DHT22;4746;35.664;139.738;2023-12-07T13:43:15;12.40;26.40
9414;DHT22;4746;35.664;139.738;2023-12-07T13:45:44;12.40;26.60
9414;DHT22;4746;35.664;139.738;2023-12-07T13:48:12;12.30;26.50
9414;DHT22;4746;35.664;139.738;2023-12-07T13:50:39;12.30;26.90
9414;DHT22;4746;35.664;139.738;2023-12-07T13:53:07;12.30;26.80
9414;DHT22;4746;35.664;139.738;2023-12-07T13:55:37;12.20;26.80
9414;DHT22;4746;35.664;139.738;2023-12-07T13:58:07;12.20;27.00
9414;DHT22;4746;35.664;139.738;2023-12-07T14:00:37;12.20;27.00
9414;DHT22;4746;35.664;139.738;2023-12-07T14:03:05;12.20;27.10
9414;DHT22;4746;35.664;139.738;2023-12-07T14:05:32;12.20;27.40
9414;DHT22;4746;35.664;139.738;2023-12-07T14:08:00;12.10;27.20
9414;DHT22;4746;35.664;139.738;2023-12-07T14:10:32;12.00;27.10
9414;DHT22;4746;35.664;139.738;2023-12-07T14:13:01;12.00;27.20
9414;DHT22;4746;35.664;139.738;2023-12-07T14:15:28;12.00;27.20
9414;DHT22;4746;35.664;139.738;2023-12-07T14:18:01;12.00;27.70
9414;DHT22;4746;35.664;139.738;2023-12-07T14:20:29;12.00;28.20
9414;DHT22;4746;35.664;139.738;2023-12-07T14:22:57;12.00;27.90
9414;DHT22;4746;35.664;139.738;2023-12-07T14:25:30;12.00;27.80
9414;DHT22;4746;35.664;139.738;2023-12-07T14:27:58;12.00;28.10
9414;DHT22;4746;35.664;139.738;2023-12-07T14:30:25;12.00;27.70
9414;DHT22;4746;35.664;139.738;2023-12-07T14:32:53;12.00;28.10
9414;DHT22;4746;35.664;139.738;2023-12-07T14:35:21;11.90;28.10
9414;DHT22;4746;35.664;139.738;2023-12-07T14:37:49;11.90;28.10
9414;DHT22;4746;35.664;139.738;2023-12-07T14:40:17;11.90;28.10
9414;DHT22;4746;35.664;139.738;2023-12-07T14:42:45;11.90;28.40
9414;DHT22;4746;35.664;139.738;2023-12-07T14:45:12;11.90;29.20
9414;DHT22;4746;35.664;139.738;2023-12-07T14:47:41;11.90;29.50
9414;DHT22;4746;35.664;139.738;2023-12-07T14:50:09;11.90;29.60
9414;DHT22;4746;35.664;139.738;2023-12-07T14:52:36;11.80;30.00
9414;DHT22;4746;35.664;139.738;2023-12-07T14:55:17;11.80;30.60
9414;DHT22;4746;35.664;139.738;2023-12-07T14:57:49;11.90;32.70
9414;DHT22;4746;35.664;139.738;2023-12-07T15:00:18;11.90;31.60
9414;DHT22;4746;35.664;139.738;2023-12-07T15:02:46;12.00;31.80
9414;DHT22;4746;35.664;139.738;2023-12-07T15:05:17;12.00;31.40
9414;DHT22;4746;35.664;139.738;2023-12-07T15:07:45;12.10;31.80
9414;DHT22;4746;35.664;139.738;2023-12-07T15:10:13;12.10;31.70
9414;DHT22;4746;35.664;139.738;2023-12-07T15:12:40;12.10;32.20
9414;DHT22;4746;35.664;139.738;2023-12-07T15:15:08;12.20;32.10
9414;DHT22;4746;35.664;139.738;2023-12-07T15:17:36;12.10;33.10
9414;DHT22;4746;35.664;139.738;2023-12-07T15:20:04;12.20;32.20
9414;DHT22;4746;35.664;139.738;2023-12-07T15:22:32;12.20;32.00
9414;DHT22;4746;35.664;139.738;2023-12-07T15:25:00;12.20;32.50
9414;DHT22;4746;35.664;139.738;2023-12-07T15:27:27;12.20;32.60
9414;DHT22;4746;35.664;139.738;2023-12-07T15:29:55;12.20;33.10
9414;DHT22;4746;35.664;139.738;2023-12-07T15:32:22;12.20;32.70
9414;DHT22;4746;35.664;139.738;2023-12-07T15:34:50;12.10;32.40
9414;DHT22;4746;35.664;139.738;2023-12-07T15:37:21;12.10;32.70
9414;DHT22;4746;35.664;139.738;2023-12-07T15:39:54;12.10;32.30
9414;DHT22;4746;35.664;139.738;2023-12-07T15:42:22;12.10;32.40
9414;DHT22;4746;35.664;139.738;2023-12-07T15:44:49;12.00;32.70
9414;DHT22;4746;35.664;139.738;2023-12-07T15:47:17;12.00;32.30